Data for 04/27/2010

Time Sea-Level Adjusted Pressure Absolute Pressure Temperature Relative Humidity Dew Point   
(mb) (inHg) (mb) (inHg) (C) (F) (%) (C) (F)
00:05 1014 29.94 843 24.89 6.3 43.3 44 -5 22.9
00:10 1013 29.91 843 24.89 6.2 43.1 44 -5.2 22.6
00:15 1013 29.91 843 24.89 6.2 43.1 44 -5.3 22.5
00:20 1013 29.91 843 24.89 6.1 43 44 -5.2 22.7
00:25 1013 29.91 842 24.86 6 42.8 44 -5.2 22.6
00:30 1013 29.91 842 24.86 5.9 42.7 44 -5.3 22.5
00:35 1013 29.91 842 24.86 5.8 42.5 45 -5.3 22.4
00:40 1013 29.91 842 24.86 5.8 42.4 45 -5.3 22.4
00:45 1013 29.91 842 24.86 5.8 42.4 44 -5.4 22.3
00:50 1013 29.91 842 24.86 5.7 42.3 45 -5.2 22.7
00:55 1013 29.91 842 24.86 5.6 42.1 45 -5.4 22.4
01:00 1013 29.91 843 24.89 5.5 42 46 -5.1 22.7
01:05 1013 29.91 842 24.86 5.4 41.7 46 -5.3 22.4
01:10 1013 29.91 842 24.86 5.3 41.6 47 -5.1 22.8
01:15 1013 29.91 842 24.86 5.2 41.4 48 -4.9 23.2
01:20 1013 29.91 842 24.86 5 41.1 49 -4.9 23.2
01:25 1013 29.91 842 24.86 4.9 40.8 49 -5 23
01:30 1013 29.91 842 24.86 4.9 40.9 49 -5 23
01:35 1013 29.91 842 24.86 4.9 40.8 49 -5 23.1
01:40 1013 29.91 842 24.86 4.8 40.7 49 -5.1 22.8
01:45 1013 29.91 842 24.86 4.9 40.8 48 -5.1 22.9
01:50 1013 29.91 842 24.86 4.9 40.9 48 -5.1 22.8
01:55 1013 29.91 842 24.86 4.9 40.9 48 -5.1 22.8
02:00 1013 29.91 842 24.86 4.9 40.8 48 -5.1 22.9
02:05 1013 29.91 842 24.86 5 41 48 -5.1 22.9
02:10 1013 29.91 842 24.86 5 41 48 -5.1 22.8
02:15 1013 29.91 842 24.86 5.1 41.1 48 -5 23
02:20 1012 29.88 842 24.86 5 40.9 48 -5.1 22.9
02:25 1012 29.88 842 24.86 4.9 40.9 48 -5.1 22.8
02:30 1012 29.88 842 24.86 5 41 48 -5.1 22.8
02:35 1012 29.88 841 24.83 4.9 40.8 48 -5.1 22.8
02:40 1012 29.88 841 24.83 5 41 48 -5.2 22.7
02:45 1012 29.88 841 24.83 5.1 41.2 48 -5 23
02:50 1012 29.88 841 24.83 5 41 48 -5.1 22.9
02:55 1012 29.88 841 24.83 4.9 40.9 48 -5.1 22.8
03:00 1012 29.88 841 24.83 5 41 48 -5.1 22.7
03:05 1012 29.88 841 24.83 5.1 41.2 48 -5 22.9
03:10 1012 29.88 841 24.83 5.1 41.2 47 -5.2 22.6
03:15 1012 29.88 841 24.83 5.2 41.4 47 -5.2 22.6
03:20 1012 29.88 841 24.83 5.3 41.5 47 -5.2 22.7
03:25 1011 29.85 841 24.83 5.2 41.4 47 -5.1 22.8
03:30 1011 29.85 841 24.83 5.1 41.2 48 -5.1 22.8
03:35 1011 29.85 841 24.83 5.1 41.2 47 -5.3 22.5
03:40 1011 29.85 841 24.83 5.2 41.3 47 -5.3 22.5
03:45 1011 29.85 840 24.81 5.3 41.5 46 -5.3 22.5
03:50 1011 29.85 840 24.81 5.2 41.4 47 -5.2 22.7
03:55 1011 29.85 840 24.81 5.2 41.4 47 -5.3 22.5
04:00 1011 29.85 840 24.81 5.3 41.6 46 -5.3 22.4
04:05 1011 29.85 840 24.81 5.3 41.5 47 -5.3 22.5
04:10 1011 29.85 840 24.81 5.3 41.5 46 -5.5 22.1
04:15 1011 29.85 840 24.81 5.4 41.7 45 -5.7 21.8
04:20 1011 29.85 840 24.81 5.4 41.8 45 -5.5 22
04:25 1011 29.85 840 24.81 5.4 41.8 45 -5.6 21.9
04:30 1011 29.85 840 24.81 5.5 41.8 44 -5.8 21.6
04:35 1011 29.85 840 24.81 5.5 41.9 44 -5.8 21.6
04:40 1011 29.85 840 24.81 5.5 41.9 43 -6 21.3
04:45 1010 29.83 840 24.81 5.6 42.1 44 -5.8 21.6
04:50 1010 29.83 840 24.81 5.5 42 44 -5.8 21.6
04:55 1010 29.83 839 24.78 5.7 42.2 43 -5.9 21.4
05:00 1010 29.83 839 24.78 5.7 42.3 43 -5.9 21.4
05:05 1010 29.83 839 24.78 5.8 42.4 43 -6 21.2
05:10 1010 29.83 839 24.78 5.9 42.7 42 -6 21.1
05:15 1010 29.83 839 24.78 5.9 42.6 42 -5.9 21.4
05:20 1010 29.83 839 24.78 6 42.7 42 -6 21.1
05:25 1010 29.83 839 24.78 6.1 43 41 -6.1 20.9
05:30 1010 29.83 839 24.78 6.2 43.2 41 -6.2 20.9
05:35 1010 29.83 839 24.78 6.4 43.6 40 -6.2 20.8
05:40 1010 29.83 839 24.78 6.6 43.8 40 -6.2 20.9
05:45 1010 29.83 839 24.78 6.6 44 40 -6.1 20.9
05:50 1010 29.83 839 24.78 6.7 44 39 -6.3 20.7
05:55 1010 29.83 839 24.78 6.8 44.2 39 -6.1 21.1
06:00 1010 29.83 839 24.78 6.8 44.3 39 -6.1 21
06:05 1009 29.8 839 24.78 6.9 44.4 39 -6.1 21.1
06:10 1009 29.8 839 24.78 6.9 44.4 39 -6.2 20.8
06:15 1009 29.8 839 24.78 7.1 44.7 38 -6.2 20.9
06:20 1009 29.8 839 24.78 7.1 44.8 38 -6.2 20.8
06:25 1009 29.8 838 24.75 7.2 44.9 38 -6.1 21
06:30 1009 29.8 838 24.75 7.2 45 38 -6.1 21
06:35 1009 29.8 838 24.75 7.3 45.1 38 -6.1 21
06:40 1009 29.8 838 24.75 7.4 45.3 38 -6.1 21
06:45 1009 29.8 838 24.75 7.6 45.6 37 -6.2 20.8
06:50 1009 29.8 838 24.75 7.7 45.8 37 -6 21.2
06:55 1009 29.8 838 24.75 7.6 45.7 38 -5.9 21.3
07:00 1009 29.8 838 24.75 7.7 45.8 38 -5.9 21.4
07:05 1009 29.8 838 24.75 7.8 46 36 -6.3 20.7
07:10 1009 29.8 838 24.75 8 46.4 36 -6.2 20.9
07:15 1008 29.77 838 24.75 8.1 46.6 36 -6.1 21.1
07:20 1008 29.77 837 24.72 8.2 46.8 35 -6.2 20.9
07:25 1008 29.77 837 24.72 8.4 47.2 35 -6.3 20.7
07:30 1008 29.77 837 24.72 8.7 47.6 34 -6.1 20.9
07:35 1008 29.77 837 24.72 8.7 47.7 34 -6.2 20.8
07:40 1008 29.77 837 24.72 8.8 47.9 34 -6.2 20.8
07:45 1008 29.77 837 24.72 9 48.2 34 -6.1 21
07:50 1008 29.77 837 24.72 9.2 48.5 33 -6.2 20.9
07:55 1008 29.77 837 24.72 9.2 48.6 34 -6 21.2
08:00 1008 29.77 837 24.72 9.3 48.7 33 -6.1 20.9
08:05 1008 29.77 837 24.72 9.5 49.1 32 -6.2 20.9
08:10 1008 29.77 837 24.72 9.7 49.4 33 -5.8 21.5
08:15 1008 29.77 837 24.72 9.6 49.3 33 -5.8 21.6
08:20 1008 29.77 837 24.72 9.5 49.2 33 -5.8 21.5
08:25 1008 29.77 837 24.72 9.6 49.4 33 -5.8 21.6
08:30 1008 29.77 837 24.72 9.8 49.6 33 -5.7 21.8
08:35 1008 29.77 837 24.72 9.9 49.8 33 -5.7 21.8
08:40 1007 29.74 837 24.72 10.1 50.2 33 -5.5 22.1
08:45 1007 29.74 837 24.72 10.4 50.7 33 -5.3 22.4
08:50 1007 29.74 836 24.69 10.5 50.9 32 -5.4 22.3
08:55 1007 29.74 836 24.69 10.6 51.1 32 -5.3 22.4
09:00 1007 29.74 836 24.69 10.8 51.4 32 -5.2 22.7
09:05 1007 29.74 836 24.69 11.2 52.2 30 -5.5 22.1
09:10 1007 29.74 836 24.69 11.7 53.1 29 -5.6 21.9
09:15 1007 29.74 836 24.69 12.1 53.7 29 -5.3 22.4
09:20 1007 29.74 836 24.69 12.2 54 29 -5.4 22.3
09:25 1007 29.74 836 24.69 12.4 54.3 29 -5.2 22.6
09:30 1007 29.74 836 24.69 12.4 54.4 28 -5.5 22.1
09:35 1007 29.74 836 24.69 12.5 54.5 29 -5.2 22.6
09:40 1007 29.74 836 24.69 12.5 54.5 29 -5.1 22.8
09:45 1007 29.74 836 24.69 12.6 54.8 28 -5.4 22.2
09:50 1007 29.74 836 24.69 12.9 55.1 28 -5.2 22.7
09:55 1007 29.74 836 24.69 13.1 55.5 27 -5.4 22.2
10:00 1007 29.74 836 24.69 13.3 55.9 27 -5.5 22.2
10:05 1007 29.74 836 24.69 13.4 56.1 26 -5.6 22
10:10 1007 29.74 836 24.69 13.6 56.4 27 -5.2 22.6
10:15 1006 29.71 836 24.69 13.7 56.6 27 -5.2 22.7
10:20 1006 29.71 836 24.69 13.8 56.8 27 -5 22.9
10:25 1006 29.71 835 24.66 14.2 57.6 25 -5.6 22
10:30 1006 29.71 835 24.66 14.6 58.2 25 -5.4 22.3
10:35 1006 29.71 835 24.66 14.8 58.6 24 -5.6 22
10:40 1006 29.71 835 24.66 14.5 58.1 24 -5.6 22
10:45 1006 29.71 835 24.66 14.5 58.1 25 -5.2 22.7
10:50 1006 29.71 835 24.66 14.3 57.7 25 -5.4 22.2
10:55 1006 29.71 835 24.66 14.5 58 22 -6.7 19.9
11:00 1006 29.71 835 24.66 14.7 58.4 23 -6.1 21.1
11:05 1006 29.71 835 24.66 14.8 58.6 22 -6.5 20.2
11:10 1005 29.68 835 24.66 14.9 58.9 23 -5.9 21.4
11:15 1005 29.68 834 24.63 14.9 58.8 25 -5 23
11:20 1005 29.68 834 24.63 14.9 58.8 25 -5.1 22.9
11:25 1005 29.68 834 24.63 15.3 59.6 23 -5.6 21.9
11:30 1005 29.68 834 24.63 15.5 59.8 24 -4.7 23.6
11:35 1005 29.68 834 24.63 16 60.7 22 -5.7 21.7
11:40 1005 29.68 834 24.63 16.5 61.7 19 -7.2 19.1
11:45 1005 29.68 834 24.63 16.5 61.6 21 -6.1 21
11:50 1005 29.68 834 24.63 16.2 61.2 22 -5.6 21.9
11:55 1005 29.68 834 24.63 16.2 61.1 20 -6.6 20.1
12:00 1005 29.68 834 24.63 16.6 61.8 21 -6 21.1
12:05 1004 29.65 834 24.63 16.5 61.7 22 -5.5 22.1
12:10 1004 29.65 834 24.63 16.6 61.9 21 -6 21.3
12:15 1004 29.65 834 24.63 17.2 63 19 -6.5 20.3
12:20 1004 29.65 833 24.6 17.5 63.4 17 -7.4 18.6
12:25 1004 29.65 833 24.6 17.2 62.9 20 -5.7 21.8
12:30 1004 29.65 833 24.6 17.2 62.9 18 -7.3 18.8
12:35 1004 29.65 833 24.6 17.4 63.3 17 -7.7 18.2
12:40 1004 29.65 833 24.6 17.5 63.4 18 -7.2 19.1
12:45 1004 29.65 833 24.6 17.7 63.8 17 -7.2 19
12:50 1004 29.65 833 24.6 18.1 64.6 18 -6.8 19.8
12:55 1004 29.65 833 24.6 18.3 64.9 17 -6.7 19.9
13:00 1004 29.65 833 24.6 18.1 64.6 18 -6.2 20.9
13:05 1003 29.62 833 24.6 18.2 64.7 17 -7.1 19.2
13:10 1003 29.62 833 24.6 17.9 64.2 18 -7 19.4
13:15 1003 29.62 833 24.6 17.8 64.1 19 -6 21.3
13:20 1003 29.62 833 24.6 17.7 63.9 19 -6.3 20.7
13:25 1003 29.62 833 24.6 17.8 64 18 -6.5 20.3
13:30 1003 29.62 833 24.6 17.9 64.1 19 -6.2 20.9
13:35 1003 29.62 832 24.57 17.7 63.8 18 -6.9 19.6
13:40 1003 29.62 833 24.6 17.6 63.6 19 -6 21.1
13:45 1003 29.62 833 24.6 17.6 63.7 19 -6.5 20.2
13:50 1003 29.62 832 24.57 17.3 63.1 19 -6.5 20.3
13:55 1003 29.62 832 24.57 17.2 62.9 20 -6.2 20.8
14:00 1003 29.62 832 24.57 17.2 62.9 20 -6.2 20.9
14:05 1003 29.62 832 24.57 17.4 63.3 19 -6.1 21.1
14:10 1003 29.62 832 24.57 17.3 63.1 20 -5.9 21.3
14:15 1003 29.62 832 24.57 17.4 63.3 20 -5.6 22
14:20 1003 29.62 832 24.57 17.5 63.6 20 -5.6 22
14:25 1003 29.62 832 24.57 17.8 64.1 19 -5.7 21.7
14:30 1003 29.62 832 24.57 18.3 64.9 19 -5.6 21.8
14:35 1003 29.62 832 24.57 18.7 65.6 19 -5.5 22.1
14:40 1003 29.62 832 24.57 18.1 64.6 19 -5.8 21.5
14:45 1003 29.62 832 24.57 17.7 63.9 20 -5.6 21.9
14:50 1003 29.62 832 24.57 17.8 64 20 -5.4 22.2
14:55 1002 29.59 831 24.54 18.3 65 19 -5.3 22.5
15:00 1002 29.59 831 24.54 18.8 65.9 20 -4.8 23.3
15:05 1002 29.59 831 24.54 19.2 66.5 19 -5.1 22.8
15:10 1002 29.59 831 24.54 19.1 66.4 18 -5.3 22.4
15:15 1002 29.59 831 24.54 18.7 65.6 19 -5.4 22.2
15:20 1002 29.59 831 24.54 18.8 65.8 20 -4.3 24.3
15:25 1002 29.59 831 24.54 18.7 65.6 20 -4.9 23.3
15:30 1002 29.59 831 24.54 18.5 65.2 19 -5.6 21.8
15:35 1002 29.59 831 24.54 18 64.4 19 -5.8 21.5
15:40 1002 29.59 831 24.54 17.6 63.8 20 -5.6 21.9
15:45 1002 29.59 831 24.54 17.7 63.8 20 -5.5 22
15:50 1002 29.59 831 24.54 17.7 63.8 20 -5.5 22.1
15:55 1002 29.59 831 24.54 17.5 63.5 21 -4.8 23.3
16:00 1002 29.59 831 24.54 17.4 63.3 22 -4.7 23.5
16:05 1002 29.59 831 24.54 17.7 63.8 21 -5.1 22.8
16:10 1002 29.59 831 24.54 17.9 64.2 21 -4.6 23.7
16:15 1001 29.56 831 24.54 18 64.4 21 -4.7 23.6
16:20 1001 29.56 831 24.54 17.7 63.8 22 -4.4 24
16:25 1001 29.56 830 24.51 17.7 63.8 23 -3.9 25.1
16:30 1001 29.56 830 24.51 17.7 63.8 23 -3.5 25.6
16:35 1001 29.56 830 24.51 17.3 63.2 23 -3.6 25.5
16:40 1001 29.56 830 24.51 17.2 62.9 24 -3.6 25.5
16:45 1001 29.56 830 24.51 17.2 63 24 -3.7 25.4
16:50 1001 29.56 830 24.51 17.2 62.9 25 -2.8 27
16:55 1001 29.56 830 24.51 17.3 63.1 24 -3.6 25.6
17:00 1001 29.56 830 24.51 17.3 63.1 23 -3.7 25.3
17:05 1001 29.56 830 24.51 17.5 63.4 24 -3 26.6
17:10 1001 29.56 830 24.51 17.4 63.3 23 -3.6 25.6
17:15 1000 29.53 830 24.51 17.5 63.5 23 -3.7 25.3
17:20 1000 29.53 830 24.51 17.6 63.7 23 -3.4 25.9
17:25 1000 29.53 829 24.48 17.6 63.7 23 -3.4 25.8
17:30 1000 29.53 829 24.48 18.1 64.6 21 -4.2 24.5
17:35 1000 29.53 829 24.48 18 64.5 21 -4.2 24.4
17:40 1000 29.53 829 24.48 17.9 64.3 22 -3.9 24.9
17:45 1000 29.53 829 24.48 18 64.4 22 -4 24.7
17:50 1000 29.53 829 24.48 17.8 64 23 -3.7 25.4
17:55 1000 29.53 829 24.48 17.6 63.6 22 -4.1 24.6
18:00 1000 29.53 829 24.48 17.5 63.4 23 -3.8 25.2
18:05 1000 29.53 829 24.48 17.4 63.3 23 -3.8 25.2
18:10 1000 29.53 829 24.48 17.6 63.7 23 -3.6 25.5
18:15 1000 29.53 829 24.48 17.5 63.5 24 -3.4 25.8
18:20 1000 29.53 829 24.48 17.4 63.3 24 -3.3 26.1
18:25 1000 29.53 829 24.48 17.2 63 25 -3 26.5
18:30 1000 29.53 829 24.48 16.8 62.3 25 -3.1 26.5
18:35 1000 29.53 829 24.48 16.7 62 25 -3.1 26.4
18:40 1000 29.53 829 24.48 16.6 61.9 26 -3.1 26.5
18:45 1000 29.53 829 24.48 16.5 61.8 26 -2.9 26.8
18:50 1000 29.53 829 24.48 16.3 61.3 27 -2.6 27.3
18:55 1000 29.53 829 24.48 15.9 60.7 29 -2.2 28.1
19:00 1000 29.53 829 24.48 15.7 60.2 31 -1.2 29.8
19:05 1001 29.56 830 24.51 14.3 57.7 41 1.4 34.5
19:10 1001 29.56 830 24.51 13.4 56.1 45 1.6 34.9
19:15 1001 29.56 830 24.51 13.2 55.7 46 1.9 35.4
19:20 1001 29.56 831 24.54 12.7 54.9 51 3 37.4
19:25 1002 29.59 831 24.54 12.1 53.8 54 3.1 37.6
19:30 1001 29.56 831 24.54 11.9 53.4 52 2.5 36.5
19:35 1002 29.59 831 24.54 11.8 53.3 56 3.3 37.9
19:40 1002 29.59 831 24.54 11.2 52.2 63 4.6 40.3
19:45 1001 29.56 831 24.54 10.7 51.2 66 4.5 40.1
19:50 1001 29.56 830 24.51 10.4 50.8 68 4.7 40.5
19:55 1001 29.56 830 24.51 10.1 50.2 68 4.4 40
20:00 1000 29.53 830 24.51 10 50.1 69 4.6 40.4
20:05 1000 29.53 829 24.48 9.9 49.8 69 4.5 40.2
20:10 1000 29.53 829 24.48 9.8 49.6 70 4.7 40.4
20:15 1000 29.53 829 24.48 9.8 49.7 67 4 39.2
20:20 1000 29.53 829 24.48 9.8 49.7 68 4.3 39.8
20:25 1000 29.53 829 24.48 9.8 49.7 67 4 39.2
20:30 1000 29.53 830 24.51 10.1 50.1 68 4.4 39.9
20:35 1000 29.53 830 24.51 10.1 50.2 66 4.1 39.4
20:40 1000 29.53 829 24.48 9.9 49.8 69 4.6 40.2
20:45 1000 29.53 829 24.48 9.7 49.5 73 5.1 41.1
20:50 1000 29.53 830 24.51 9.3 48.8 74 5 41.1
20:55 1001 29.56 830 24.51 9.4 49 73 4.8 40.6
21:00 1001 29.56 830 24.51 9.4 48.9 74 5 41
21:05 1001 29.56 830 24.51 9.3 48.7 75 5.1 41.2
21:10 1001 29.56 830 24.51 9.3 48.8 74 5 41
21:15 1001 29.56 830 24.51 9.2 48.6 76 5.3 41.6
21:20 1001 29.56 830 24.51 9.2 48.5 77 5.5 41.8
21:25 1000 29.53 829 24.48 8.9 48.1 84 6.4 43.5
21:30 1000 29.53 829 24.48 8.3 46.9 86 6.1 43
21:35 1000 29.53 829 24.48 8.2 46.8 89 6.5 43.7
21:40 1000 29.53 829 24.48 8.4 47.1 86 6.3 43.3
21:45 1000 29.53 829 24.48 8.5 47.2 87 6.4 43.6
21:50 1000 29.53 829 24.48 8.5 47.3 86 6.3 43.3
21:55 1000 29.53 829 24.48 8.4 47.1 89 6.7 44.1
22:00 1000 29.53 829 24.48 8.4 47.1 88 6.5 43.8
22:05 1000 29.53 829 24.48 8.3 46.9 87 6.3 43.4
22:10 999 29.5 828 24.45 8.3 47 87 6.3 43.4
22:15 999 29.5 828 24.45 8.1 46.5 88 6.1 43.1
22:20 999 29.5 828 24.45 8 46.4 86 5.8 42.5
22:25 999 29.5 828 24.45 7.8 46.1 89 6.1 42.9
22:30 999 29.5 828 24.45 7.6 45.7 89 5.9 42.6
22:35 999 29.5 828 24.45 7.5 45.5 88 5.6 42.1
22:40 999 29.5 828 24.45 7.6 45.6 86 5.4 41.8
22:45 999 29.5 828 24.45 7.6 45.7 87 5.6 42
22:50 998 29.47 827 24.42 7.5 45.4 86 5.3 41.6
22:55 998 29.47 827 24.42 7.5 45.6 85 5.2 41.4
23:00 998 29.47 827 24.42 7.6 45.6 85 5.2 41.3
23:05 997 29.44 827 24.42 7.7 45.8 79 4.2 39.6
23:10 998 29.47 827 24.42 7.9 46.3 79 4.6 40.3
23:15 998 29.47 827 24.42 8 46.4 80 4.8 40.6
23:20 998 29.47 828 24.45 8.2 46.8 79 4.8 40.6
23:25 998 29.47 828 24.45 8.5 47.2 78 4.9 40.8
23:30 998 29.47 827 24.42 8.5 47.3 81 5.5 42
23:35 998 29.47 828 24.45 8.3 47 81 5.3 41.5
23:40 999 29.5 828 24.45 8.4 47 82 5.5 41.8
23:45 999 29.5 828 24.45 8.1 46.5 83 5.3 41.6
23:50 998 29.47 828 24.45 7.8 46.1 84 5.4 41.7
23:55 998 29.47 828 24.45 7.7 45.9 86 5.6 42.1
24:00 998 29.47 828 24.45 7.6 45.6 88 5.7 42.2